sensor_id;sensor_type;location;lat;lon;timestamp;temperature;humidity
16958;DHT22;8595;52.542;11.974;2022-09-20T00:01:16;11.00;99.90
16958;DHT22;8595;52.542;11.974;2022-09-20T00:03:47;11.00;99.90
16958;DHT22;8595;52.542;11.974;2022-09-20T00:06:15;11.00;99.90
16958;DHT22;8595;52.542;11.974;2022-09-20T00:08:43;11.00;99.90
16958;DHT22;8595;52.542;11.974;2022-09-20T00:11:11;10.90;99.90
16958;DHT22;8595;52.542;11.974;2022-09-20T00:13:41;10.90;99.90
16958;DHT22;8595;52.542;11.974;2022-09-20T00:16:10;10.80;99.90
16958;DHT22;8595;52.542;11.974;2022-09-20T00:18:38;10.90;99.90
16958;DHT22;8595;52.542;11.974;2022-09-20T00:21:05;10.80;99.90
16958;DHT22;8595;52.542;11.974;2022-09-20T00:23:32;10.90;99.90
16958;DHT22;8595;52.542;11.974;2022-09-20T00:26:03;10.90;99.90
16958;DHT22;8595;52.542;11.974;2022-09-20T00:28:30;10.80;99.90
16958;DHT22;8595;52.542;11.974;2022-09-20T00:30:58;10.80;99.90
16958;DHT22;8595;52.542;11.974;2022-09-20T00:33:25;10.80;99.90
16958;DHT22;8595;52.542;11.974;2022-09-20T00:36:14;10.70;99.90
16958;DHT22;8595;52.542;11.974;2022-09-20T00:38:40;10.70;99.90
16958;DHT22;8595;52.542;11.974;2022-09-20T00:41:07;10.60;99.90
16958;DHT22;8595;52.542;11.974;2022-09-20T00:43:37;10.70;99.90
16958;DHT22;8595;52.542;11.974;2022-09-20T00:46:04;10.70;99.90
16958;DHT22;8595;52.542;11.974;2022-09-20T00:48:32;10.80;99.90
16958;DHT22;8595;52.542;11.974;2022-09-20T00:51:04;10.70;99.90
16958;DHT22;8595;52.542;11.974;2022-09-20T00:53:37;10.70;99.90
16958;DHT22;8595;52.542;11.974;2022-09-20T00:56:09;10.70;99.90
16958;DHT22;8595;52.542;11.974;2022-09-20T00:58:39;10.70;99.90
16958;DHT22;8595;52.542;11.974;2022-09-20T01:01:08;10.80;99.90
16958;DHT22;8595;52.542;11.974;2022-09-20T01:03:37;10.70;99.90
16958;DHT22;8595;52.542;11.974;2022-09-20T01:06:08;10.80;99.90
16958;DHT22;8595;52.542;11.974;2022-09-20T01:08:37;10.80;99.90
16958;DHT22;8595;52.542;11.974;2022-09-20T01:11:05;10.70;99.90
16958;DHT22;8595;52.542;11.974;2022-09-20T01:13:31;10.70;99.90
16958;DHT22;8595;52.542;11.974;2022-09-20T01:15:59;10.70;99.90
16958;DHT22;8595;52.542;11.974;2022-09-20T01:18:28;10.80;99.90
16958;DHT22;8595;52.542;11.974;2022-09-20T01:21:00;10.80;99.90
16958;DHT22;8595;52.542;11.974;2022-09-20T01:23:42;10.90;99.90
16958;DHT22;8595;52.542;11.974;2022-09-20T01:26:29;10.80;99.90
16958;DHT22;8595;52.542;11.974;2022-09-20T01:29:10;10.90;99.90
16958;DHT22;8595;52.542;11.974;2022-09-20T01:31:43;11.00;99.90
16958;DHT22;8595;52.542;11.974;2022-09-20T01:34:13;11.00;99.90
16958;DHT22;8595;52.542;11.974;2022-09-20T01:36:44;11.00;99.90
16958;DHT22;8595;52.542;11.974;2022-09-20T01:39:20;11.00;99.90
16958;DHT22;8595;52.542;11.974;2022-09-20T01:41:52;11.00;99.90
16958;DHT22;8595;52.542;11.974;2022-09-20T01:44:26;11.00;99.90
16958;DHT22;8595;52.542;11.974;2022-09-20T01:47:01;10.90;99.90
16958;DHT22;8595;52.542;11.974;2022-09-20T01:49:35;11.00;99.90
16958;DHT22;8595;52.542;11.974;2022-09-20T01:52:47;11.00;99.90
16958;DHT22;8595;52.542;11.974;2022-09-20T01:55:42;10.90;99.90
16958;DHT22;8595;52.542;11.974;2022-09-20T02:01:32;11.00;99.90
16958;DHT22;8595;52.542;11.974;2022-09-20T02:04:18;10.90;99.90
16958;DHT22;8595;52.542;11.974;2022-09-20T02:07:00;10.90;99.90
16958;DHT22;8595;52.542;11.974;2022-09-20T02:09:55;10.80;99.90
16958;DHT22;8595;52.542;11.974;2022-09-20T02:12:43;10.80;99.90
16958;DHT22;8595;52.542;11.974;2022-09-20T02:18:19;10.90;99.90
16958;DHT22;8595;52.542;11.974;2022-09-20T02:20:55;10.90;99.90
16958;DHT22;8595;52.542;11.974;2022-09-20T02:23:33;10.80;99.90
16958;DHT22;8595;52.542;11.974;2022-09-20T02:26:23;10.70;99.90
16958;DHT22;8595;52.542;11.974;2022-09-20T02:29:01;10.70;99.90
16958;DHT22;8595;52.542;11.974;2022-09-20T02:32:10;10.70;99.90
16958;DHT22;8595;52.542;11.974;2022-09-20T02:35:04;10.70;99.90
16958;DHT22;8595;52.542;11.974;2022-09-20T02:38:00;10.70;99.90
16958;DHT22;8595;52.542;11.974;2022-09-20T02:40:55;10.70;99.90
16958;DHT22;8595;52.542;11.974;2022-09-20T02:43:29;10.60;99.90
16958;DHT22;8595;52.542;11.974;2022-09-20T02:46:02;10.60;99.90
16958;DHT22;8595;52.542;11.974;2022-09-20T02:48:37;10.70;99.90
16958;DHT22;8595;52.542;11.974;2022-09-20T02:51:11;10.70;99.90
16958;DHT22;8595;52.542;11.974;2022-09-20T02:53:48;10.60;99.90
16958;DHT22;8595;52.542;11.974;2022-09-20T02:56:21;10.60;99.90
16958;DHT22;8595;52.542;11.974;2022-09-20T02:58:56;10.50;99.90
16958;DHT22;8595;52.542;11.974;2022-09-20T03:01:34;10.70;99.90
16958;DHT22;8595;52.542;11.974;2022-09-20T03:04:16;10.60;99.90
16958;DHT22;8595;52.542;11.974;2022-09-20T03:06:52;10.60;99.90
16958;DHT22;8595;52.542;11.974;2022-09-20T03:09:26;10.60;99.90
16958;DHT22;8595;52.542;11.974;2022-09-20T03:12:03;10.60;99.90
16958;DHT22;8595;52.542;11.974;2022-09-20T03:14:36;10.50;99.90
16958;DHT22;8595;52.542;11.974;2022-09-20T03:17:16;10.50;99.90
16958;DHT22;8595;52.542;11.974;2022-09-20T03:20:05;10.50;99.90
16958;DHT22;8595;52.542;11.974;2022-09-20T03:22:46;10.30;99.90
16958;DHT22;8595;52.542;11.974;2022-09-20T03:25:38;10.40;99.90
16958;DHT22;8595;52.542;11.974;2022-09-20T03:28:30;10.40;99.90
16958;DHT22;8595;52.542;11.974;2022-09-20T03:31:03;10.30;99.90
16958;DHT22;8595;52.542;11.974;2022-09-20T03:33:41;10.30;99.90
16958;DHT22;8595;52.542;11.974;2022-09-20T03:36:24;10.30;99.90
16958;DHT22;8595;52.542;11.974;2022-09-20T03:39:13;10.30;99.90
16958;DHT22;8595;52.542;11.974;2022-09-20T03:44:57;10.20;99.90
16958;DHT22;8595;52.542;11.974;2022-09-20T03:47:41;10.20;99.90
16958;DHT22;8595;52.542;11.974;2022-09-20T03:50:22;10.20;99.90
16958;DHT22;8595;52.542;11.974;2022-09-20T03:53:12;10.10;99.90
16958;DHT22;8595;52.542;11.974;2022-09-20T03:55:51;10.10;99.90
16958;DHT22;8595;52.542;11.974;2022-09-20T03:58:33;10.10;99.90
16958;DHT22;8595;52.542;11.974;2022-09-20T04:01:26;10.00;99.90
16958;DHT22;8595;52.542;11.974;2022-09-20T04:04:02;10.00;99.90
16958;DHT22;8595;52.542;11.974;2022-09-20T04:06:43;10.00;99.90
16958;DHT22;8595;52.542;11.974;2022-09-20T04:09:38;9.90;99.90
16958;DHT22;8595;52.542;11.974;2022-09-20T04:12:19;9.90;99.90
16958;DHT22;8595;52.542;11.974;2022-09-20T04:14:54;9.80;99.90
16958;DHT22;8595;52.542;11.974;2022-09-20T04:17:34;9.80;99.90
16958;DHT22;8595;52.542;11.974;2022-09-20T04:20:12;9.80;99.90
16958;DHT22;8595;52.542;11.974;2022-09-20T04:22:42;9.80;99.90
16958;DHT22;8595;52.542;11.974;2022-09-20T04:25:14;9.70;99.90
16958;DHT22;8595;52.542;11.974;2022-09-20T04:27:47;9.80;99.90
16958;DHT22;8595;52.542;11.974;2022-09-20T04:30:17;9.80;99.90
16958;DHT22;8595;52.542;11.974;2022-09-20T04:32:48;9.80;99.90
16958;DHT22;8595;52.542;11.974;2022-09-20T04:38:27;9.70;99.90
16958;DHT22;8595;52.542;11.974;2022-09-20T04:41:12;9.60;99.90
16958;DHT22;8595;52.542;11.974;2022-09-20T04:44:03;9.60;99.90
16958;DHT22;8595;52.542;11.974;2022-09-20T04:47:00;9.50;99.90
16958;DHT22;8595;52.542;11.974;2022-09-20T04:52:53;9.50;99.90
16958;DHT22;8595;52.542;11.974;2022-09-20T04:55:49;9.40;99.90
16958;DHT22;8595;52.542;11.974;2022-09-20T04:58:38;9.30;99.90
16958;DHT22;8595;52.542;11.974;2022-09-20T05:01:44;9.30;99.90
16958;DHT22;8595;52.542;11.974;2022-09-20T05:04:51;9.20;99.90
16958;DHT22;8595;52.542;11.974;2022-09-20T05:07:56;9.20;99.90
16958;DHT22;8595;52.542;11.974;2022-09-20T05:11:11;9.20;99.90
16958;DHT22;8595;52.542;11.974;2022-09-20T05:13:55;9.20;99.90
16958;DHT22;8595;52.542;11.974;2022-09-20T05:16:31;9.20;99.90
16958;DHT22;8595;52.542;11.974;2022-09-20T05:19:15;9.20;99.90
16958;DHT22;8595;52.542;11.974;2022-09-20T05:21:56;9.10;99.90
16958;DHT22;8595;52.542;11.974;2022-09-20T05:24:54;9.10;99.90
16958;DHT22;8595;52.542;11.974;2022-09-20T05:27:33;9.10;99.90
16958;DHT22;8595;52.542;11.974;2022-09-20T05:30:05;9.10;99.90
16958;DHT22;8595;52.542;11.974;2022-09-20T05:32:41;9.10;99.90
16958;DHT22;8595;52.542;11.974;2022-09-20T05:35:17;9.10;99.90
16958;DHT22;8595;52.542;11.974;2022-09-20T05:37:53;9.10;99.90
16958;DHT22;8595;52.542;11.974;2022-09-20T05:40:30;9.10;99.90
16958;DHT22;8595;52.542;11.974;2022-09-20T05:43:04;9.20;99.90
16958;DHT22;8595;52.542;11.974;2022-09-20T05:45:48;9.20;99.90
16958;DHT22;8595;52.542;11.974;2022-09-20T05:48:21;9.20;99.90
16958;DHT22;8595;52.542;11.974;2022-09-20T05:50:57;9.20;99.90
16958;DHT22;8595;52.542;11.974;2022-09-20T05:53:49;9.30;99.90
16958;DHT22;8595;52.542;11.974;2022-09-20T05:56:28;9.40;99.90
16958;DHT22;8595;52.542;11.974;2022-09-20T05:59:09;9.40;99.90
16958;DHT22;8595;52.542;11.974;2022-09-20T06:01:44;9.50;99.90
16958;DHT22;8595;52.542;11.974;2022-09-20T06:04:14;9.40;99.90
16958;DHT22;8595;52.542;11.974;2022-09-20T06:06:54;9.50;99.90
16958;DHT22;8595;52.542;11.974;2022-09-20T06:09:33;9.60;99.90
16958;DHT22;8595;52.542;11.974;2022-09-20T06:12:35;9.60;99.90
16958;DHT22;8595;52.542;11.974;2022-09-20T06:15:13;9.60;99.90
16958;DHT22;8595;52.542;11.974;2022-09-20T06:17:48;9.70;99.90
16958;DHT22;8595;52.542;11.974;2022-09-20T06:20:24;9.80;99.90
16958;DHT22;8595;52.542;11.974;2022-09-20T06:22:56;9.80;99.90
16958;DHT22;8595;52.542;11.974;2022-09-20T06:25:28;9.90;99.90
16958;DHT22;8595;52.542;11.974;2022-09-20T06:27:59;10.00;99.90
16958;DHT22;8595;52.542;11.974;2022-09-20T06:30:28;10.00;99.90
16958;DHT22;8595;52.542;11.974;2022-09-20T06:32:57;10.30;99.90
16958;DHT22;8595;52.542;11.974;2022-09-20T06:35:31;10.40;99.90
16958;DHT22;8595;52.542;11.974;2022-09-20T06:38:12;10.40;99.90
16958;DHT22;8595;52.542;11.974;2022-09-20T06:40:58;10.20;99.90
16958;DHT22;8595;52.542;11.974;2022-09-20T06:43:44;10.30;99.90
16958;DHT22;8595;52.542;11.974;2022-09-20T06:46:13;10.30;99.90
16958;DHT22;8595;52.542;11.974;2022-09-20T06:48:40;10.50;99.90
16958;DHT22;8595;52.542;11.974;2022-09-20T06:51:07;10.50;99.90
16958;DHT22;8595;52.542;11.974;2022-09-20T06:53:38;10.50;99.90
16958;DHT22;8595;52.542;11.974;2022-09-20T06:56:07;10.50;99.90
16958;DHT22;8595;52.542;11.974;2022-09-20T06:58:34;10.60;99.90
16958;DHT22;8595;52.542;11.974;2022-09-20T07:01:01;10.70;99.90
16958;DHT22;8595;52.542;11.974;2022-09-20T07:03:28;10.80;99.90
16958;DHT22;8595;52.542;11.974;2022-09-20T07:05:56;10.70;99.90
16958;DHT22;8595;52.542;11.974;2022-09-20T07:08:24;10.70;99.90
16958;DHT22;8595;52.542;11.974;2022-09-20T07:10:53;10.80;99.90
16958;DHT22;8595;52.542;11.974;2022-09-20T07:13:19;10.70;99.90
16958;DHT22;8595;52.542;11.974;2022-09-20T07:15:47;10.60;99.90
16958;DHT22;8595;52.542;11.974;2022-09-20T07:18:15;10.60;99.90
16958;DHT22;8595;52.542;11.974;2022-09-20T07:20:41;10.70;99.90
16958;DHT22;8595;52.542;11.974;2022-09-20T07:23:09;10.80;99.90
16958;DHT22;8595;52.542;11.974;2022-09-20T07:25:35;10.90;99.90
16958;DHT22;8595;52.542;11.974;2022-09-20T07:28:04;10.80;99.90
16958;DHT22;8595;52.542;11.974;2022-09-20T07:30:30;10.90;99.90
16958;DHT22;8595;52.542;11.974;2022-09-20T07:32:57;10.80;99.90
16958;DHT22;8595;52.542;11.974;2022-09-20T07:35:25;10.70;99.90
16958;DHT22;8595;52.542;11.974;2022-09-20T07:37:55;10.70;99.90
16958;DHT22;8595;52.542;11.974;2022-09-20T07:40:22;10.70;99.90
16958;DHT22;8595;52.542;11.974;2022-09-20T07:42:50;10.70;99.90
16958;DHT22;8595;52.542;11.974;2022-09-20T07:45:18;10.70;99.90
16958;DHT22;8595;52.542;11.974;2022-09-20T07:47:44;10.90;99.90
16958;DHT22;8595;52.542;11.974;2022-09-20T07:50:11;10.80;99.90
16958;DHT22;8595;52.542;11.974;2022-09-20T07:52:38;10.70;99.90
16958;DHT22;8595;52.542;11.974;2022-09-20T07:55:05;10.70;99.90
16958;DHT22;8595;52.542;11.974;2022-09-20T07:57:34;10.80;99.90
16958;DHT22;8595;52.542;11.974;2022-09-20T08:00:03;10.80;99.90
16958;DHT22;8595;52.542;11.974;2022-09-20T08:02:32;11.00;99.90
16958;DHT22;8595;52.542;11.974;2022-09-20T08:04:59;11.10;99.90
16958;DHT22;8595;52.542;11.974;2022-09-20T08:07:25;11.10;99.90
16958;DHT22;8595;52.542;11.974;2022-09-20T08:09:52;11.20;99.90
16958;DHT22;8595;52.542;11.974;2022-09-20T08:12:19;11.20;99.90
16958;DHT22;8595;52.542;11.974;2022-09-20T08:14:47;11.40;99.90
16958;DHT22;8595;52.542;11.974;2022-09-20T08:17:13;11.30;99.90
16958;DHT22;8595;52.542;11.974;2022-09-20T08:19:42;11.40;99.90
16958;DHT22;8595;52.542;11.974;2022-09-20T08:22:09;11.60;99.90
16958;DHT22;8595;52.542;11.974;2022-09-20T08:24:37;11.70;99.90
16958;DHT22;8595;52.542;11.974;2022-09-20T08:27:04;11.80;99.90
16958;DHT22;8595;52.542;11.974;2022-09-20T08:29:30;11.90;99.90
16958;DHT22;8595;52.542;11.974;2022-09-20T08:31:57;11.90;99.90
16958;DHT22;8595;52.542;11.974;2022-09-20T08:34:25;12.00;99.90
16958;DHT22;8595;52.542;11.974;2022-09-20T08:36:54;12.10;99.90
16958;DHT22;8595;52.542;11.974;2022-09-20T08:39:21;12.00;99.90
16958;DHT22;8595;52.542;11.974;2022-09-20T08:41:52;12.10;99.90
16958;DHT22;8595;52.542;11.974;2022-09-20T08:44:23;12.00;99.90
16958;DHT22;8595;52.542;11.974;2022-09-20T08:47:02;12.00;99.90
16958;DHT22;8595;52.542;11.974;2022-09-20T08:49:31;12.20;99.90
16958;DHT22;8595;52.542;11.974;2022-09-20T08:52:01;12.20;99.90
16958;DHT22;8595;52.542;11.974;2022-09-20T08:54:30;12.10;99.90
16958;DHT22;8595;52.542;11.974;2022-09-20T08:57:00;12.10;99.90
16958;DHT22;8595;52.542;11.974;2022-09-20T08:59:30;12.10;99.90
16958;DHT22;8595;52.542;11.974;2022-09-20T09:01:58;12.30;99.90
16958;DHT22;8595;52.542;11.974;2022-09-20T09:04:33;12.20;99.90
16958;DHT22;8595;52.542;11.974;2022-09-20T09:07:02;12.30;99.90
16958;DHT22;8595;52.542;11.974;2022-09-20T09:09:29;12.30;99.90
16958;DHT22;8595;52.542;11.974;2022-09-20T09:11:59;12.50;99.90
16958;DHT22;8595;52.542;11.974;2022-09-20T09:14:28;12.50;99.90
16958;DHT22;8595;52.542;11.974;2022-09-20T09:17:16;12.60;99.90
16958;DHT22;8595;52.542;11.974;2022-09-20T09:19:45;12.60;99.90
16958;DHT22;8595;52.542;11.974;2022-09-20T09:22:19;12.50;99.90
16958;DHT22;8595;52.542;11.974;2022-09-20T09:25:05;12.40;99.90
16958;DHT22;8595;52.542;11.974;2022-09-20T09:27:32;12.60;99.90
16958;DHT22;8595;52.542;11.974;2022-09-20T09:30:00;12.80;99.90
16958;DHT22;8595;52.542;11.974;2022-09-20T09:32:28;13.00;99.90
16958;DHT22;8595;52.542;11.974;2022-09-20T09:35:21;13.20;99.90
16958;DHT22;8595;52.542;11.974;2022-09-20T09:37:54;13.10;99.90
16958;DHT22;8595;52.542;11.974;2022-09-20T09:40:21;12.90;99.90
16958;DHT22;8595;52.542;11.974;2022-09-20T09:42:49;13.00;99.90
16958;DHT22;8595;52.542;11.974;2022-09-20T09:45:25;13.20;99.90
16958;DHT22;8595;52.542;11.974;2022-09-20T09:47:52;13.40;99.90
16958;DHT22;8595;52.542;11.974;2022-09-20T09:50:23;13.80;99.90
16958;DHT22;8595;52.542;11.974;2022-09-20T09:53:02;14.10;99.90
16958;DHT22;8595;52.542;11.974;2022-09-20T09:55:44;13.90;99.90
16958;DHT22;8595;52.542;11.974;2022-09-20T09:58:25;14.40;99.90
16958;DHT22;8595;52.542;11.974;2022-09-20T10:00:58;15.30;99.90
16958;DHT22;8595;52.542;11.974;2022-09-20T10:03:40;15.60;99.90
16958;DHT22;8595;52.542;11.974;2022-09-20T10:06:20;16.10;99.90
16958;DHT22;8595;52.542;11.974;2022-09-20T10:09:02;16.60;99.90
16958;DHT22;8595;52.542;11.974;2022-09-20T10:11:46;17.20;99.90
16958;DHT22;8595;52.542;11.974;2022-09-20T10:14:30;17.20;99.90
16958;DHT22;8595;52.542;11.974;2022-09-20T10:17:12;17.50;99.90
16958;DHT22;8595;52.542;11.974;2022-09-20T10:19:54;17.20;99.90
16958;DHT22;8595;52.542;11.974;2022-09-20T10:22:32;17.30;99.90
16958;DHT22;8595;52.542;11.974;2022-09-20T10:25:10;17.30;99.90
16958;DHT22;8595;52.542;11.974;2022-09-20T10:27:56;17.80;99.90
16958;DHT22;8595;52.542;11.974;2022-09-20T10:30:32;17.30;99.90
16958;DHT22;8595;52.542;11.974;2022-09-20T10:33:08;16.90;99.90
16958;DHT22;8595;52.542;11.974;2022-09-20T10:35:51;16.80;99.90
16958;DHT22;8595;52.542;11.974;2022-09-20T10:38:23;16.80;99.90
16958;DHT22;8595;52.542;11.974;2022-09-20T10:41:04;17.80;99.90
16958;DHT22;8595;52.542;11.974;2022-09-20T10:44:04;17.70;99.90
16958;DHT22;8595;52.542;11.974;2022-09-20T10:46:40;18.40;99.90
16958;DHT22;8595;52.542;11.974;2022-09-20T10:49:19;18.60;99.90
16958;DHT22;8595;52.542;11.974;2022-09-20T10:51:54;18.20;99.90
16958;DHT22;8595;52.542;11.974;2022-09-20T10:54:33;18.60;99.90
16958;DHT22;8595;52.542;11.974;2022-09-20T10:57:16;19.00;99.90
16958;DHT22;8595;52.542;11.974;2022-09-20T10:59:50;19.00;99.90
16958;DHT22;8595;52.542;11.974;2022-09-20T11:02:31;18.50;99.90
16958;DHT22;8595;52.542;11.974;2022-09-20T11:05:23;19.10;99.90
16958;DHT22;8595;52.542;11.974;2022-09-20T11:08:07;19.20;99.90
16958;DHT22;8595;52.542;11.974;2022-09-20T11:10:41;18.70;99.90
16958;DHT22;8595;52.542;11.974;2022-09-20T11:13:18;19.00;99.90
16958;DHT22;8595;52.542;11.974;2022-09-20T11:15:52;19.10;99.90
16958;DHT22;8595;52.542;11.974;2022-09-20T11:18:27;19.90;99.90
16958;DHT22;8595;52.542;11.974;2022-09-20T11:21:01;20.70;99.90
16958;DHT22;8595;52.542;11.974;2022-09-20T11:23:39;20.20;99.90
16958;DHT22;8595;52.542;11.974;2022-09-20T11:26:12;20.30;99.90
16958;DHT22;8595;52.542;11.974;2022-09-20T11:28:45;19.40;99.90
16958;DHT22;8595;52.542;11.974;2022-09-20T11:31:21;19.80;99.90
16958;DHT22;8595;52.542;11.974;2022-09-20T11:33:52;20.10;99.90
16958;DHT22;8595;52.542;11.974;2022-09-20T11:36:24;20.80;99.90
16958;DHT22;8595;52.542;11.974;2022-09-20T11:38:56;20.80;99.90
16958;DHT22;8595;52.542;11.974;2022-09-20T11:41:26;20.30;99.90
16958;DHT22;8595;52.542;11.974;2022-09-20T11:43:59;20.10;99.90
16958;DHT22;8595;52.542;11.974;2022-09-20T11:46:29;21.00;99.90
16958;DHT22;8595;52.542;11.974;2022-09-20T11:48:59;21.10;99.90
16958;DHT22;8595;52.542;11.974;2022-09-20T11:54:35;20.90;99.90
16958;DHT22;8595;52.542;11.974;2022-09-20T11:57:11;21.50;99.90
16958;DHT22;8595;52.542;11.974;2022-09-20T11:59:47;21.00;99.90
16958;DHT22;8595;52.542;11.974;2022-09-20T12:02:18;20.90;99.90
16958;DHT22;8595;52.542;11.974;2022-09-20T12:04:47;21.30;99.90
16958;DHT22;8595;52.542;11.974;2022-09-20T12:07:22;22.00;99.90
16958;DHT22;8595;52.542;11.974;2022-09-20T12:09:53;22.20;99.90
16958;DHT22;8595;52.542;11.974;2022-09-20T12:12:34;22.90;99.90
16958;DHT22;8595;52.542;11.974;2022-09-20T12:15:05;22.80;99.90
16958;DHT22;8595;52.542;11.974;2022-09-20T12:18:13;22.80;99.90
16958;DHT22;8595;52.542;11.974;2022-09-20T12:21:10;23.00;99.90
16958;DHT22;8595;52.542;11.974;2022-09-20T12:23:44;23.40;99.90
16958;DHT22;8595;52.542;11.974;2022-09-20T12:26:34;23.60;99.90
16958;DHT22;8595;52.542;11.974;2022-09-20T12:31:53;23.40;99.90
16958;DHT22;8595;52.542;11.974;2022-09-20T12:34:34;23.40;99.90
16958;DHT22;8595;52.542;11.974;2022-09-20T12:37:21;22.50;99.90
16958;DHT22;8595;52.542;11.974;2022-09-20T12:39:51;22.60;99.90
16958;DHT22;8595;52.542;11.974;2022-09-20T12:42:26;23.10;99.90
16958;DHT22;8595;52.542;11.974;2022-09-20T12:44:59;22.70;99.90
16958;DHT22;8595;52.542;11.974;2022-09-20T12:47:31;23.00;99.90
16958;DHT22;8595;52.542;11.974;2022-09-20T12:49:59;22.60;99.90
16958;DHT22;8595;52.542;11.974;2022-09-20T12:52:51;22.40;99.90
16958;DHT22;8595;52.542;11.974;2022-09-20T12:55:40;22.40;99.90
16958;DHT22;8595;52.542;11.974;2022-09-20T12:58:21;22.80;99.90
16958;DHT22;8595;52.542;11.974;2022-09-20T13:00:51;23.30;99.90
16958;DHT22;8595;52.542;11.974;2022-09-20T13:03:39;22.30;99.90
16958;DHT22;8595;52.542;11.974;2022-09-20T13:06:24;22.40;99.90
16958;DHT22;8595;52.542;11.974;2022-09-20T13:08:55;23.40;99.90
16958;DHT22;8595;52.542;11.974;2022-09-20T13:11:24;23.60;99.90
16958;DHT22;8595;52.542;11.974;2022-09-20T13:13:55;22.90;99.90
16958;DHT22;8595;52.542;11.974;2022-09-20T13:16:25;22.00;99.90
16958;DHT22;8595;52.542;11.974;2022-09-20T13:19:00;21.30;99.90
16958;DHT22;8595;52.542;11.974;2022-09-20T13:21:30;21.40;99.90
16958;DHT22;8595;52.542;11.974;2022-09-20T13:23:57;21.70;99.90
16958;DHT22;8595;52.542;11.974;2022-09-20T13:26:34;22.00;99.90
16958;DHT22;8595;52.542;11.974;2022-09-20T13:29:07;21.80;99.90
16958;DHT22;8595;52.542;11.974;2022-09-20T13:31:34;21.70;99.90
16958;DHT22;8595;52.542;11.974;2022-09-20T13:34:20;21.10;99.90
16958;DHT22;8595;52.542;11.974;2022-09-20T13:36:47;20.40;99.90
16958;DHT22;8595;52.542;11.974;2022-09-20T13:39:25;20.10;99.90
16958;DHT22;8595;52.542;11.974;2022-09-20T13:41:58;19.80;99.90
16958;DHT22;8595;52.542;11.974;2022-09-20T13:44:27;20.20;99.90
16958;DHT22;8595;52.542;11.974;2022-09-20T13:46:55;21.00;99.90
16958;DHT22;8595;52.542;11.974;2022-09-20T13:49:23;21.30;99.90
16958;DHT22;8595;52.542;11.974;2022-09-20T13:51:50;21.80;99.90
16958;DHT22;8595;52.542;11.974;2022-09-20T13:54:25;22.20;99.90
16958;DHT22;8595;52.542;11.974;2022-09-20T13:56:53;22.40;99.90
16958;DHT22;8595;52.542;11.974;2022-09-20T13:59:21;21.70;99.90
16958;DHT22;8595;52.542;11.974;2022-09-20T14:01:50;21.30;99.90
16958;DHT22;8595;52.542;11.974;2022-09-20T14:04:20;20.80;99.90
16958;DHT22;8595;52.542;11.974;2022-09-20T14:06:50;20.30;99.90
16958;DHT22;8595;52.542;11.974;2022-09-20T14:09:22;19.90;99.90
16958;DHT22;8595;52.542;11.974;2022-09-20T14:11:51;19.50;99.90
16958;DHT22;8595;52.542;11.974;2022-09-20T14:14:19;19.50;99.90
16958;DHT22;8595;52.542;11.974;2022-09-20T14:16:47;20.10;99.90
16958;DHT22;8595;52.542;11.974;2022-09-20T14:19:16;20.60;99.90
16958;DHT22;8595;52.542;11.974;2022-09-20T14:21:44;21.10;99.90
16958;DHT22;8595;52.542;11.974;2022-09-20T14:24:27;21.50;99.90
16958;DHT22;8595;52.542;11.974;2022-09-20T14:27:05;21.70;99.90
16958;DHT22;8595;52.542;11.974;2022-09-20T14:29:39;22.50;99.90
16958;DHT22;8595;52.542;11.974;2022-09-20T14:32:15;23.10;99.90
16958;DHT22;8595;52.542;11.974;2022-09-20T14:34:45;23.30;99.90
16958;DHT22;8595;52.542;11.974;2022-09-20T14:37:15;23.30;99.90
16958;DHT22;8595;52.542;11.974;2022-09-20T14:39:48;22.70;99.90
16958;DHT22;8595;52.542;11.974;2022-09-20T14:42:19;22.00;99.90
16958;DHT22;8595;52.542;11.974;2022-09-20T14:44:52;21.60;99.90
16958;DHT22;8595;52.542;11.974;2022-09-20T14:47:26;21.60;99.90
16958;DHT22;8595;52.542;11.974;2022-09-20T14:49:54;21.70;99.90
16958;DHT22;8595;52.542;11.974;2022-09-20T14:52:36;22.10;99.90
16958;DHT22;8595;52.542;11.974;2022-09-20T14:55:18;22.20;99.90
16958;DHT22;8595;52.542;11.974;2022-09-20T14:57:46;23.10;99.90
16958;DHT22;8595;52.542;11.974;2022-09-20T15:00:15;23.30;99.90
16958;DHT22;8595;52.542;11.974;2022-09-20T15:02:43;23.70;99.90
16958;DHT22;8595;52.542;11.974;2022-09-20T15:05:16;24.10;99.90
16958;DHT22;8595;52.542;11.974;2022-09-20T15:07:44;23.60;98.80
16958;DHT22;8595;52.542;11.974;2022-09-20T15:10:12;23.60;99.70
16958;DHT22;8595;52.542;11.974;2022-09-20T15:12:39;23.60;99.90
16958;DHT22;8595;52.542;11.974;2022-09-20T15:15:10;23.70;99.90
16958;DHT22;8595;52.542;11.974;2022-09-20T15:17:39;23.90;98.90
16958;DHT22;8595;52.542;11.974;2022-09-20T15:20:12;24.00;98.60
16958;DHT22;8595;52.542;11.974;2022-09-20T15:22:40;24.00;98.60
16958;DHT22;8595;52.542;11.974;2022-09-20T15:25:13;23.20;96.40
16958;DHT22;8595;52.542;11.974;2022-09-20T15:27:42;23.60;97.20
16958;DHT22;8595;52.542;11.974;2022-09-20T15:30:13;24.20;97.20
16958;DHT22;8595;52.542;11.974;2022-09-20T15:32:40;23.90;96.00
16958;DHT22;8595;52.542;11.974;2022-09-20T15:35:07;23.50;97.40
16958;DHT22;8595;52.542;11.974;2022-09-20T15:37:34;23.70;98.30
16958;DHT22;8595;52.542;11.974;2022-09-20T15:40:02;24.20;97.20
16958;DHT22;8595;52.542;11.974;2022-09-20T15:42:30;24.40;97.90
16958;DHT22;8595;52.542;11.974;2022-09-20T15:44:57;24.20;96.30
16958;DHT22;8595;52.542;11.974;2022-09-20T15:47:23;23.60;95.80
16958;DHT22;8595;52.542;11.974;2022-09-20T15:49:52;23.20;95.60
16958;DHT22;8595;52.542;11.974;2022-09-20T15:52:19;23.40;96.90
16958;DHT22;8595;52.542;11.974;2022-09-20T15:54:50;23.70;96.00
16958;DHT22;8595;52.542;11.974;2022-09-20T15:57:17;23.60;95.60
16958;DHT22;8595;52.542;11.974;2022-09-20T15:59:46;23.50;96.20
16958;DHT22;8595;52.542;11.974;2022-09-20T16:02:14;23.20;94.80
16958;DHT22;8595;52.542;11.974;2022-09-20T16:04:41;23.00;95.40
16958;DHT22;8595;52.542;11.974;2022-09-20T16:07:08;22.60;95.10
16958;DHT22;8595;52.542;11.974;2022-09-20T16:09:35;22.40;95.10
16958;DHT22;8595;52.542;11.974;2022-09-20T16:12:02;22.10;95.10
16958;DHT22;8595;52.542;11.974;2022-09-20T16:14:29;22.30;95.70
16958;DHT22;8595;52.542;11.974;2022-09-20T16:16:57;21.80;95.90
16958;DHT22;8595;52.542;11.974;2022-09-20T16:19:24;21.40;97.00
16958;DHT22;8595;52.542;11.974;2022-09-20T16:21:51;21.30;99.90
16958;DHT22;8595;52.542;11.974;2022-09-20T16:24:21;21.50;99.90
16958;DHT22;8595;52.542;11.974;2022-09-20T16:26:48;20.50;99.90
16958;DHT22;8595;52.542;11.974;2022-09-20T16:29:15;20.00;99.90
16958;DHT22;8595;52.542;11.974;2022-09-20T16:31:43;19.90;99.90
16958;DHT22;8595;52.542;11.974;2022-09-20T16:34:18;19.80;99.90
16958;DHT22;8595;52.542;11.974;2022-09-20T16:36:45;19.70;99.90
16958;DHT22;8595;52.542;11.974;2022-09-20T16:39:15;19.50;99.90
16958;DHT22;8595;52.542;11.974;2022-09-20T16:41:42;19.60;99.90